sensor_id;sensor_type;location;lat;lon;timestamp;temperature;humidity
80695;DHT22;70059;42.702;23.312;2024-01-06T00:01:11;8.80;69.90
80695;DHT22;70059;42.702;23.312;2024-01-06T00:03:37;8.80;68.10
80695;DHT22;70059;42.702;23.312;2024-01-06T00:06:03;9.00;68.30
80695;DHT22;70059;42.702;23.312;2024-01-06T00:08:29;9.10;67.60
80695;DHT22;70059;42.702;23.312;2024-01-06T00:10:54;9.20;66.70
80695;DHT22;70059;42.702;23.312;2024-01-06T00:13:20;9.10;66.60
80695;DHT22;70059;42.702;23.312;2024-01-06T00:15:46;9.30;66.10
80695;DHT22;70059;42.702;23.312;2024-01-06T00:18:12;9.30;66.40
80695;DHT22;70059;42.702;23.312;2024-01-06T00:20:37;9.30;66.00
80695;DHT22;70059;42.702;23.312;2024-01-06T00:23:03;9.00;66.50
80695;DHT22;70059;42.702;23.312;2024-01-06T00:25:29;8.80;68.50
80695;DHT22;70059;42.702;23.312;2024-01-06T00:27:54;8.80;69.00
80695;DHT22;70059;42.702;23.312;2024-01-06T00:30:20;9.00;68.60
80695;DHT22;70059;42.702;23.312;2024-01-06T00:32:46;9.00;68.00
80695;DHT22;70059;42.702;23.312;2024-01-06T00:35:11;9.30;66.80
80695;DHT22;70059;42.702;23.312;2024-01-06T00:37:37;9.50;64.90
80695;DHT22;70059;42.702;23.312;2024-01-06T00:40:04;9.40;65.80
80695;DHT22;70059;42.702;23.312;2024-01-06T00:42:30;9.30;65.80
80695;DHT22;70059;42.702;23.312;2024-01-06T00:44:55;9.40;67.20
80695;DHT22;70059;42.702;23.312;2024-01-06T00:47:21;9.30;65.50
80695;DHT22;70059;42.702;23.312;2024-01-06T00:49:49;9.00;67.00
80695;DHT22;70059;42.702;23.312;2024-01-06T00:52:15;9.10;67.60
80695;DHT22;70059;42.702;23.312;2024-01-06T00:54:41;9.10;67.00
80695;DHT22;70059;42.702;23.312;2024-01-06T00:57:06;9.00;67.40
80695;DHT22;70059;42.702;23.312;2024-01-06T00:59:33;9.10;66.70
80695;DHT22;70059;42.702;23.312;2024-01-06T01:01:58;8.90;67.40
80695;DHT22;70059;42.702;23.312;2024-01-06T01:04:24;8.90;68.00
80695;DHT22;70059;42.702;23.312;2024-01-06T01:06:49;8.90;67.40
80695;DHT22;70059;42.702;23.312;2024-01-06T01:09:15;8.70;67.50
80695;DHT22;70059;42.702;23.312;2024-01-06T01:11:41;8.70;68.40
80695;DHT22;70059;42.702;23.312;2024-01-06T01:14:07;8.60;68.40
80695;DHT22;70059;42.702;23.312;2024-01-06T01:16:33;8.20;69.90
80695;DHT22;70059;42.702;23.312;2024-01-06T01:18:59;8.30;71.60
80695;DHT22;70059;42.702;23.312;2024-01-06T01:21:24;8.60;69.80
80695;DHT22;70059;42.702;23.312;2024-01-06T01:23:50;8.90;68.60
80695;DHT22;70059;42.702;23.312;2024-01-06T01:26:22;8.90;67.90
80695;DHT22;70059;42.702;23.312;2024-01-06T01:28:54;8.90;67.30
80695;DHT22;70059;42.702;23.312;2024-01-06T01:31:20;8.70;67.80
80695;DHT22;70059;42.702;23.312;2024-01-06T01:33:45;8.80;68.50
80695;DHT22;70059;42.702;23.312;2024-01-06T01:36:12;8.80;69.40
80695;DHT22;70059;42.702;23.312;2024-01-06T01:38:38;8.90;67.70
80695;DHT22;70059;42.702;23.312;2024-01-06T01:41:03;8.80;68.30
80695;DHT22;70059;42.702;23.312;2024-01-06T01:43:29;8.60;68.70
80695;DHT22;70059;42.702;23.312;2024-01-06T01:45:56;8.70;68.80
80695;DHT22;70059;42.702;23.312;2024-01-06T01:48:23;8.70;68.00
80695;DHT22;70059;42.702;23.312;2024-01-06T01:50:49;8.70;67.80
80695;DHT22;70059;42.702;23.312;2024-01-06T01:53:16;8.60;68.00
80695;DHT22;70059;42.702;23.312;2024-01-06T01:55:42;8.70;68.00
80695;DHT22;70059;42.702;23.312;2024-01-06T01:58:09;8.60;68.80
80695;DHT22;70059;42.702;23.312;2024-01-06T02:00:36;8.80;68.10
80695;DHT22;70059;42.702;23.312;2024-01-06T02:03:04;8.70;68.70
80695;DHT22;70059;42.702;23.312;2024-01-06T02:05:30;8.70;68.80
80695;DHT22;70059;42.702;23.312;2024-01-06T02:07:56;8.80;68.60
80695;DHT22;70059;42.702;23.312;2024-01-06T02:10:22;8.80;68.50
80695;DHT22;70059;42.702;23.312;2024-01-06T02:12:49;9.00;67.80
80695;DHT22;70059;42.702;23.312;2024-01-06T02:15:17;9.00;67.30
80695;DHT22;70059;42.702;23.312;2024-01-06T02:17:43;8.90;67.50
80695;DHT22;70059;42.702;23.312;2024-01-06T02:20:16;8.80;68.40
80695;DHT22;70059;42.702;23.312;2024-01-06T02:22:45;8.80;68.10
80695;DHT22;70059;42.702;23.312;2024-01-06T02:25:11;9.00;67.60
80695;DHT22;70059;42.702;23.312;2024-01-06T02:27:40;9.00;67.00
80695;DHT22;70059;42.702;23.312;2024-01-06T02:30:06;9.00;67.10
80695;DHT22;70059;42.702;23.312;2024-01-06T02:32:33;8.80;68.00
80695;DHT22;70059;42.702;23.312;2024-01-06T02:34:58;8.70;68.70
80695;DHT22;70059;42.702;23.312;2024-01-06T02:37:24;8.80;67.80
80695;DHT22;70059;42.702;23.312;2024-01-06T02:39:50;8.90;67.80
80695;DHT22;70059;42.702;23.312;2024-01-06T02:42:16;8.80;67.60
80695;DHT22;70059;42.702;23.312;2024-01-06T02:44:42;8.70;68.50
80695;DHT22;70059;42.702;23.312;2024-01-06T02:47:07;8.70;68.70
80695;DHT22;70059;42.702;23.312;2024-01-06T02:49:33;8.80;68.50
80695;DHT22;70059;42.702;23.312;2024-01-06T02:51:59;9.00;67.10
80695;DHT22;70059;42.702;23.312;2024-01-06T02:54:24;9.10;67.00
80695;DHT22;70059;42.702;23.312;2024-01-06T02:56:56;9.00;67.80
80695;DHT22;70059;42.702;23.312;2024-01-06T02:59:22;9.00;67.90
80695;DHT22;70059;42.702;23.312;2024-01-06T03:01:48;9.10;67.50
80695;DHT22;70059;42.702;23.312;2024-01-06T03:04:13;9.10;67.00
80695;DHT22;70059;42.702;23.312;2024-01-06T03:06:39;9.20;66.80
80695;DHT22;70059;42.702;23.312;2024-01-06T03:09:05;9.20;66.70
80695;DHT22;70059;42.702;23.312;2024-01-06T03:11:31;9.10;67.10
80695;DHT22;70059;42.702;23.312;2024-01-06T03:13:56;9.10;67.10
80695;DHT22;70059;42.702;23.312;2024-01-06T03:16:22;9.00;68.10
80695;DHT22;70059;42.702;23.312;2024-01-06T03:18:48;8.90;67.70
80695;DHT22;70059;42.702;23.312;2024-01-06T03:21:18;8.80;67.90
80695;DHT22;70059;42.702;23.312;2024-01-06T03:23:44;8.90;67.90
80695;DHT22;70059;42.702;23.312;2024-01-06T03:26:10;8.90;67.40
80695;DHT22;70059;42.702;23.312;2024-01-06T03:28:35;8.70;67.80
80695;DHT22;70059;42.702;23.312;2024-01-06T03:31:01;8.60;69.00
80695;DHT22;70059;42.702;23.312;2024-01-06T03:33:27;8.50;69.10
80695;DHT22;70059;42.702;23.312;2024-01-06T03:35:52;8.70;68.10
80695;DHT22;70059;42.702;23.312;2024-01-06T03:38:18;8.70;68.00
80695;DHT22;70059;42.702;23.312;2024-01-06T03:40:43;8.30;65.80
80695;DHT22;70059;42.702;23.312;2024-01-06T03:43:09;8.20;67.30
80695;DHT22;70059;42.702;23.312;2024-01-06T03:45:35;8.20;69.70
80695;DHT22;70059;42.702;23.312;2024-01-06T03:48:00;8.40;69.50
80695;DHT22;70059;42.702;23.312;2024-01-06T03:50:26;8.50;68.50
80695;DHT22;70059;42.702;23.312;2024-01-06T03:52:52;8.60;68.20
80695;DHT22;70059;42.702;23.312;2024-01-06T03:55:24;8.40;67.80
80695;DHT22;70059;42.702;23.312;2024-01-06T03:57:50;8.40;68.20
80695;DHT22;70059;42.702;23.312;2024-01-06T04:00:16;8.40;68.80
80695;DHT22;70059;42.702;23.312;2024-01-06T04:02:48;8.70;68.10
80695;DHT22;70059;42.702;23.312;2024-01-06T04:05:14;8.90;66.20
80695;DHT22;70059;42.702;23.312;2024-01-06T04:07:40;8.90;65.90
80695;DHT22;70059;42.702;23.312;2024-01-06T04:10:05;9.00;65.30
80695;DHT22;70059;42.702;23.312;2024-01-06T04:12:31;8.80;65.70
80695;DHT22;70059;42.702;23.312;2024-01-06T04:14:57;8.80;67.10
80695;DHT22;70059;42.702;23.312;2024-01-06T04:17:23;8.90;66.70
80695;DHT22;70059;42.702;23.312;2024-01-06T04:19:48;8.80;65.80
80695;DHT22;70059;42.702;23.312;2024-01-06T04:22:14;8.80;66.40
80695;DHT22;70059;42.702;23.312;2024-01-06T04:24:40;8.60;67.60
80695;DHT22;70059;42.702;23.312;2024-01-06T04:27:06;8.50;67.10
80695;DHT22;70059;42.702;23.312;2024-01-06T04:29:38;8.40;68.30
80695;DHT22;70059;42.702;23.312;2024-01-06T04:32:05;8.40;68.70
80695;DHT22;70059;42.702;23.312;2024-01-06T04:34:31;8.50;67.30
80695;DHT22;70059;42.702;23.312;2024-01-06T04:36:57;8.50;66.80
80695;DHT22;70059;42.702;23.312;2024-01-06T04:39:22;8.70;66.70
80695;DHT22;70059;42.702;23.312;2024-01-06T04:41:49;8.70;66.00
80695;DHT22;70059;42.702;23.312;2024-01-06T04:44:15;8.60;65.80
80695;DHT22;70059;42.702;23.312;2024-01-06T04:46:41;8.40;66.70
80695;DHT22;70059;42.702;23.312;2024-01-06T04:49:06;8.50;67.40
80695;DHT22;70059;42.702;23.312;2024-01-06T04:51:32;8.70;65.90
80695;DHT22;70059;42.702;23.312;2024-01-06T04:53:58;8.60;66.10
80695;DHT22;70059;42.702;23.312;2024-01-06T04:56:23;8.60;67.00
80695;DHT22;70059;42.702;23.312;2024-01-06T04:58:49;8.70;65.70
80695;DHT22;70059;42.702;23.312;2024-01-06T05:01:15;8.50;66.50
80695;DHT22;70059;42.702;23.312;2024-01-06T05:03:41;8.50;67.30
80695;DHT22;70059;42.702;23.312;2024-01-06T05:06:06;8.50;66.70
80695;DHT22;70059;42.702;23.312;2024-01-06T05:08:32;8.30;67.00
80695;DHT22;70059;42.702;23.312;2024-01-06T05:10:58;8.20;67.90
80695;DHT22;70059;42.702;23.312;2024-01-06T05:13:30;8.20;67.00
80695;DHT22;70059;42.702;23.312;2024-01-06T05:15:56;8.10;67.60
80695;DHT22;70059;42.702;23.312;2024-01-06T05:18:22;8.00;68.80
80695;DHT22;70059;42.702;23.312;2024-01-06T05:20:48;7.90;69.10
80695;DHT22;70059;42.702;23.312;2024-01-06T05:23:13;8.10;69.10
80695;DHT22;70059;42.702;23.312;2024-01-06T05:25:39;8.30;67.90
80695;DHT22;70059;42.702;23.312;2024-01-06T05:28:11;8.30;67.40
80695;DHT22;70059;42.702;23.312;2024-01-06T05:30:37;8.20;67.40
80695;DHT22;70059;42.702;23.312;2024-01-06T05:33:03;8.10;68.80
80695;DHT22;70059;42.702;23.312;2024-01-06T05:35:29;8.10;67.80
80695;DHT22;70059;42.702;23.312;2024-01-06T05:37:55;7.90;68.50
80695;DHT22;70059;42.702;23.312;2024-01-06T05:40:21;8.00;68.30
80695;DHT22;70059;42.702;23.312;2024-01-06T05:42:47;7.70;68.00
80695;DHT22;70059;42.702;23.312;2024-01-06T05:45:12;7.60;70.50
80695;DHT22;70059;42.702;23.312;2024-01-06T05:47:45;7.50;68.20
80695;DHT22;70059;42.702;23.312;2024-01-06T05:50:11;7.50;68.80
80695;DHT22;70059;42.702;23.312;2024-01-06T05:52:37;7.40;67.90
80695;DHT22;70059;42.702;23.312;2024-01-06T05:55:04;7.30;67.10
80695;DHT22;70059;42.702;23.312;2024-01-06T05:57:30;7.10;68.60
80695;DHT22;70059;42.702;23.312;2024-01-06T05:59:55;7.40;67.50
80695;DHT22;70059;42.702;23.312;2024-01-06T06:02:21;7.50;66.80
80695;DHT22;70059;42.702;23.312;2024-01-06T06:04:47;7.40;68.00
80695;DHT22;70059;42.702;23.312;2024-01-06T06:07:12;7.40;67.10
80695;DHT22;70059;42.702;23.312;2024-01-06T06:09:38;7.50;66.40
80695;DHT22;70059;42.702;23.312;2024-01-06T06:12:05;7.80;65.30
80695;DHT22;70059;42.702;23.312;2024-01-06T06:14:31;8.00;65.00
80695;DHT22;70059;42.702;23.312;2024-01-06T06:16:57;8.00;65.10
80695;DHT22;70059;42.702;23.312;2024-01-06T06:19:22;8.10;65.00
80695;DHT22;70059;42.702;23.312;2024-01-06T06:21:54;8.20;63.40
80695;DHT22;70059;42.702;23.312;2024-01-06T06:24:20;8.30;63.70
80695;DHT22;70059;42.702;23.312;2024-01-06T06:26:52;8.20;63.90
80695;DHT22;70059;42.702;23.312;2024-01-06T06:29:18;8.10;64.30
80695;DHT22;70059;42.702;23.312;2024-01-06T06:31:46;8.10;64.30
80695;DHT22;70059;42.702;23.312;2024-01-06T06:34:12;8.20;64.40
80695;DHT22;70059;42.702;23.312;2024-01-06T06:36:38;8.20;63.60
80695;DHT22;70059;42.702;23.312;2024-01-06T06:39:04;8.10;64.40
80695;DHT22;70059;42.702;23.312;2024-01-06T06:41:30;8.20;64.10
80695;DHT22;70059;42.702;23.312;2024-01-06T06:43:59;8.20;63.80
80695;DHT22;70059;42.702;23.312;2024-01-06T06:46:25;8.20;63.60
80695;DHT22;70059;42.702;23.312;2024-01-06T06:48:51;8.40;63.20
80695;DHT22;70059;42.702;23.312;2024-01-06T06:51:19;8.40;63.10
80695;DHT22;70059;42.702;23.312;2024-01-06T06:53:50;8.40;63.50
80695;DHT22;70059;42.702;23.312;2024-01-06T06:56:22;8.50;63.70
80695;DHT22;70059;42.702;23.312;2024-01-06T06:58:48;8.50;63.40
80695;DHT22;70059;42.702;23.312;2024-01-06T07:01:15;8.60;62.70
80695;DHT22;70059;42.702;23.312;2024-01-06T07:03:41;8.90;62.40
80695;DHT22;70059;42.702;23.312;2024-01-06T07:06:06;8.90;61.60
80695;DHT22;70059;42.702;23.312;2024-01-06T07:08:32;9.10;61.10
80695;DHT22;70059;42.702;23.312;2024-01-06T07:10:58;9.10;60.60
80695;DHT22;70059;42.702;23.312;2024-01-06T07:13:23;9.00;60.90
80695;DHT22;70059;42.702;23.312;2024-01-06T07:15:51;8.90;61.70
80695;DHT22;70059;42.702;23.312;2024-01-06T07:18:17;9.10;60.50
80695;DHT22;70059;42.702;23.312;2024-01-06T07:20:44;8.90;62.40
80695;DHT22;70059;42.702;23.312;2024-01-06T07:23:10;9.10;60.80
80695;DHT22;70059;42.702;23.312;2024-01-06T07:25:36;8.60;61.10
80695;DHT22;70059;42.702;23.312;2024-01-06T07:28:01;8.50;62.60
80695;DHT22;70059;42.702;23.312;2024-01-06T07:30:27;8.80;62.00
80695;DHT22;70059;42.702;23.312;2024-01-06T07:32:59;8.70;64.10
80695;DHT22;70059;42.702;23.312;2024-01-06T07:35:25;8.90;62.00
80695;DHT22;70059;42.702;23.312;2024-01-06T07:37:51;9.20;61.10
80695;DHT22;70059;42.702;23.312;2024-01-06T07:40:17;9.40;60.00
80695;DHT22;70059;42.702;23.312;2024-01-06T07:42:43;9.80;58.30
80695;DHT22;70059;42.702;23.312;2024-01-06T07:45:09;9.80;58.30
80695;DHT22;70059;42.702;23.312;2024-01-06T07:47:35;10.00;57.80
80695;DHT22;70059;42.702;23.312;2024-01-06T07:50:01;10.10;57.60
80695;DHT22;70059;42.702;23.312;2024-01-06T07:52:27;10.00;57.90
80695;DHT22;70059;42.702;23.312;2024-01-06T07:54:52;10.20;57.20
80695;DHT22;70059;42.702;23.312;2024-01-06T07:57:18;10.20;57.60
80695;DHT22;70059;42.702;23.312;2024-01-06T07:59:44;10.30;57.20
80695;DHT22;70059;42.702;23.312;2024-01-06T08:02:10;10.60;55.50
80695;DHT22;70059;42.702;23.312;2024-01-06T08:04:36;10.70;55.70
80695;DHT22;70059;42.702;23.312;2024-01-06T08:07:01;10.90;55.00
80695;DHT22;70059;42.702;23.312;2024-01-06T08:09:27;11.10;54.00
80695;DHT22;70059;42.702;23.312;2024-01-06T08:11:53;11.10;53.60
80695;DHT22;70059;42.702;23.312;2024-01-06T08:14:21;11.20;53.70
80695;DHT22;70059;42.702;23.312;2024-01-06T08:16:47;11.10;53.10
80695;DHT22;70059;42.702;23.312;2024-01-06T08:19:13;11.00;53.80
80695;DHT22;70059;42.702;23.312;2024-01-06T08:21:38;11.00;53.90
80695;DHT22;70059;42.702;23.312;2024-01-06T08:24:04;10.90;54.10
80695;DHT22;70059;42.702;23.312;2024-01-06T08:26:30;11.00;53.90
80695;DHT22;70059;42.702;23.312;2024-01-06T08:28:56;10.90;54.10
80695;DHT22;70059;42.702;23.312;2024-01-06T08:31:22;11.00;54.10
80695;DHT22;70059;42.702;23.312;2024-01-06T08:33:49;11.00;53.70
80695;DHT22;70059;42.702;23.312;2024-01-06T08:36:16;11.00;53.40
80695;DHT22;70059;42.702;23.312;2024-01-06T08:38:41;11.40;52.50
80695;DHT22;70059;42.702;23.312;2024-01-06T08:41:07;11.90;51.60
80695;DHT22;70059;42.702;23.312;2024-01-06T08:43:33;12.30;49.90
80695;DHT22;70059;42.702;23.312;2024-01-06T08:45:58;12.50;49.00
80695;DHT22;70059;42.702;23.312;2024-01-06T08:48:31;12.70;48.90
80695;DHT22;70059;42.702;23.312;2024-01-06T08:50:59;13.20;46.60
80695;DHT22;70059;42.702;23.312;2024-01-06T08:53:25;13.80;45.90
80695;DHT22;70059;42.702;23.312;2024-01-06T08:55:51;14.00;43.70
80695;DHT22;70059;42.702;23.312;2024-01-06T08:58:17;13.80;44.90
80695;DHT22;70059;42.702;23.312;2024-01-06T09:00:45;13.50;45.20
80695;DHT22;70059;42.702;23.312;2024-01-06T09:03:11;13.40;45.30
80695;DHT22;70059;42.702;23.312;2024-01-06T09:05:37;13.80;45.00
80695;DHT22;70059;42.702;23.312;2024-01-06T09:08:04;13.90;44.10
80695;DHT22;70059;42.702;23.312;2024-01-06T09:10:36;13.90;44.50
80695;DHT22;70059;42.702;23.312;2024-01-06T09:13:02;13.70;44.80
80695;DHT22;70059;42.702;23.312;2024-01-06T09:15:28;13.40;46.20
80695;DHT22;70059;42.702;23.312;2024-01-06T09:17:53;13.80;44.60
80695;DHT22;70059;42.702;23.312;2024-01-06T09:20:19;14.30;43.70
80695;DHT22;70059;42.702;23.312;2024-01-06T09:22:48;14.70;41.40
80695;DHT22;70059;42.702;23.312;2024-01-06T09:25:14;14.90;40.70
80695;DHT22;70059;42.702;23.312;2024-01-06T09:27:39;14.80;41.30
80695;DHT22;70059;42.702;23.312;2024-01-06T09:30:06;14.60;41.60
80695;DHT22;70059;42.702;23.312;2024-01-06T09:32:33;14.20;42.00
80695;DHT22;70059;42.702;23.312;2024-01-06T09:34:59;14.10;42.60
80695;DHT22;70059;42.702;23.312;2024-01-06T09:37:25;13.90;43.40
80695;DHT22;70059;42.702;23.312;2024-01-06T09:39:50;13.50;44.10
80695;DHT22;70059;42.702;23.312;2024-01-06T09:42:16;13.40;44.50
80695;DHT22;70059;42.702;23.312;2024-01-06T09:44:42;13.30;45.30
80695;DHT22;70059;42.702;23.312;2024-01-06T09:47:11;13.30;44.50
80695;DHT22;70059;42.702;23.312;2024-01-06T09:49:38;13.20;45.00
80695;DHT22;70059;42.702;23.312;2024-01-06T09:52:12;12.90;45.80
80695;DHT22;70059;42.702;23.312;2024-01-06T09:54:45;12.90;45.90
80695;DHT22;70059;42.702;23.312;2024-01-06T09:57:12;13.00;46.00
80695;DHT22;70059;42.702;23.312;2024-01-06T09:59:38;13.00;46.60
80695;DHT22;70059;42.702;23.312;2024-01-06T10:02:14;13.10;46.10
80695;DHT22;70059;42.702;23.312;2024-01-06T10:04:41;13.20;45.10
80695;DHT22;70059;42.702;23.312;2024-01-06T10:07:07;13.10;45.90
80695;DHT22;70059;42.702;23.312;2024-01-06T10:09:43;13.10;47.00
80695;DHT22;70059;42.702;23.312;2024-01-06T10:12:09;13.10;46.30
80695;DHT22;70059;42.702;23.312;2024-01-06T10:14:37;13.00;45.70
80695;DHT22;70059;42.702;23.312;2024-01-06T10:17:06;13.00;46.50
80695;DHT22;70059;42.702;23.312;2024-01-06T10:19:34;13.10;46.60
80695;DHT22;70059;42.702;23.312;2024-01-06T10:21:59;13.00;46.60
80695;DHT22;70059;42.702;23.312;2024-01-06T10:24:27;13.00;46.00
80695;DHT22;70059;42.702;23.312;2024-01-06T10:26:53;12.90;47.10
80695;DHT22;70059;42.702;23.312;2024-01-06T10:29:19;12.90;46.50
80695;DHT22;70059;42.702;23.312;2024-01-06T10:31:44;12.90;46.40
80695;DHT22;70059;42.702;23.312;2024-01-06T10:34:10;13.10;46.30
80695;DHT22;70059;42.702;23.312;2024-01-06T10:36:36;13.10;46.40
80695;DHT22;70059;42.702;23.312;2024-01-06T10:39:03;13.30;45.30
80695;DHT22;70059;42.702;23.312;2024-01-06T10:41:29;13.60;44.30
80695;DHT22;70059;42.702;23.312;2024-01-06T10:43:58;13.70;44.60
80695;DHT22;70059;42.702;23.312;2024-01-06T10:46:26;13.70;44.00
80695;DHT22;70059;42.702;23.312;2024-01-06T10:48:55;14.00;42.60
80695;DHT22;70059;42.702;23.312;2024-01-06T10:51:23;13.50;42.10
80695;DHT22;70059;42.702;23.312;2024-01-06T10:53:58;13.50;43.60
80695;DHT22;70059;42.702;23.312;2024-01-06T10:56:29;13.70;43.50
80695;DHT22;70059;42.702;23.312;2024-01-06T10:59:03;14.00;43.70
80695;DHT22;70059;42.702;23.312;2024-01-06T11:01:29;14.30;42.40
80695;DHT22;70059;42.702;23.312;2024-01-06T11:03:55;14.50;42.20
80695;DHT22;70059;42.702;23.312;2024-01-06T11:06:24;14.80;40.30
80695;DHT22;70059;42.702;23.312;2024-01-06T11:11:29;15.50;39.60
80695;DHT22;70059;42.702;23.312;2024-01-06T11:14:23;15.60;38.70
80695;DHT22;70059;42.702;23.312;2024-01-06T11:16:50;15.80;38.50
80695;DHT22;70059;42.702;23.312;2024-01-06T11:24:49;16.40;38.10
80695;DHT22;70059;42.702;23.312;2024-01-06T11:27:28;16.80;36.70
80695;DHT22;70059;42.702;23.312;2024-01-06T11:30:02;17.10;35.90
80695;DHT22;70059;42.702;23.312;2024-01-06T11:32:34;17.50;35.20
80695;DHT22;70059;42.702;23.312;2024-01-06T11:35:12;18.00;33.90
80695;DHT22;70059;42.702;23.312;2024-01-06T11:45:28;20.20;29.30
80695;DHT22;70059;42.702;23.312;2024-01-06T11:47:59;19.90;29.90
80695;DHT22;70059;42.702;23.312;2024-01-06T11:50:39;19.40;30.90
80695;DHT22;70059;42.702;23.312;2024-01-06T11:53:06;19.50;31.50
80695;DHT22;70059;42.702;23.312;2024-01-06T11:55:33;19.50;30.80
80695;DHT22;70059;42.702;23.312;2024-01-06T11:58:01;19.20;31.00
80695;DHT22;70059;42.702;23.312;2024-01-06T12:00:37;18.80;32.10
80695;DHT22;70059;42.702;23.312;2024-01-06T12:03:04;19.20;31.60
80695;DHT22;70059;42.702;23.312;2024-01-06T12:05:30;19.20;31.70
80695;DHT22;70059;42.702;23.312;2024-01-06T12:07:57;18.60;33.30
80695;DHT22;70059;42.702;23.312;2024-01-06T12:10:24;18.70;32.90
80695;DHT22;70059;42.702;23.312;2024-01-06T12:13:01;18.30;33.70
80695;DHT22;70059;42.702;23.312;2024-01-06T12:15:28;17.70;35.00
80695;DHT22;70059;42.702;23.312;2024-01-06T12:17:54;17.10;36.10
80695;DHT22;70059;42.702;23.312;2024-01-06T12:20:21;16.60;37.50
80695;DHT22;70059;42.702;23.312;2024-01-06T12:22:53;16.50;37.90
80695;DHT22;70059;42.702;23.312;2024-01-06T12:25:23;16.50;37.60
80695;DHT22;70059;42.702;23.312;2024-01-06T12:27:50;16.40;37.50
80695;DHT22;70059;42.702;23.312;2024-01-06T12:30:21;16.10;39.00
80695;DHT22;70059;42.702;23.312;2024-01-06T12:32:53;15.70;39.70
80695;DHT22;70059;42.702;23.312;2024-01-06T12:35:20;14.90;41.50
80695;DHT22;70059;42.702;23.312;2024-01-06T12:37:46;14.70;43.20
80695;DHT22;70059;42.702;23.312;2024-01-06T12:40:12;14.60;43.80
80695;DHT22;70059;42.702;23.312;2024-01-06T12:42:38;14.40;44.10
80695;DHT22;70059;42.702;23.312;2024-01-06T12:45:06;13.90;44.80
80695;DHT22;70059;42.702;23.312;2024-01-06T12:47:32;13.60;46.40
80695;DHT22;70059;42.702;23.312;2024-01-06T12:49:58;13.80;46.50
80695;DHT22;70059;42.702;23.312;2024-01-06T12:52:24;14.00;45.70
80695;DHT22;70059;42.702;23.312;2024-01-06T12:54:49;14.30;45.50
80695;DHT22;70059;42.702;23.312;2024-01-06T12:57:15;14.60;44.50
80695;DHT22;70059;42.702;23.312;2024-01-06T12:59:41;14.50;45.10
80695;DHT22;70059;42.702;23.312;2024-01-06T13:02:07;14.60;44.90
80695;DHT22;70059;42.702;23.312;2024-01-06T13:04:33;14.80;44.30
80695;DHT22;70059;42.702;23.312;2024-01-06T13:07:00;14.50;44.50
80695;DHT22;70059;42.702;23.312;2024-01-06T13:09:26;14.70;45.50
80695;DHT22;70059;42.702;23.312;2024-01-06T13:11:51;15.30;44.90
80695;DHT22;70059;42.702;23.312;2024-01-06T13:14:18;16.30;41.60
80695;DHT22;70059;42.702;23.312;2024-01-06T13:16:44;17.70;38.20
80695;DHT22;70059;42.702;23.312;2024-01-06T13:19:09;18.70;35.50
80695;DHT22;70059;42.702;23.312;2024-01-06T13:21:35;20.00;33.30
80695;DHT22;70059;42.702;23.312;2024-01-06T13:24:05;20.90;31.40
80695;DHT22;70059;42.702;23.312;2024-01-06T13:26:31;21.30;29.70
80695;DHT22;70059;42.702;23.312;2024-01-06T13:28:57;21.60;29.80
80695;DHT22;70059;42.702;23.312;2024-01-06T13:31:23;22.00;29.00
80695;DHT22;70059;42.702;23.312;2024-01-06T13:33:55;20.10;30.40
80695;DHT22;70059;42.702;23.312;2024-01-06T13:36:21;20.60;31.20
80695;DHT22;70059;42.702;23.312;2024-01-06T13:38:47;21.30;30.50
80695;DHT22;70059;42.702;23.312;2024-01-06T13:41:14;21.90;29.10
80695;DHT22;70059;42.702;23.312;2024-01-06T13:43:40;22.30;28.60
80695;DHT22;70059;42.702;23.312;2024-01-06T13:46:05;22.20;28.50
80695;DHT22;70059;42.702;23.312;2024-01-06T13:48:37;22.20;28.60
80695;DHT22;70059;42.702;23.312;2024-01-06T13:51:03;22.30;28.40
80695;DHT22;70059;42.702;23.312;2024-01-06T13:53:29;22.30;28.50
80695;DHT22;70059;42.702;23.312;2024-01-06T13:55:55;22.20;28.80
80695;DHT22;70059;42.702;23.312;2024-01-06T13:58:20;21.90;29.00
80695;DHT22;70059;42.702;23.312;2024-01-06T14:00:46;21.20;30.00
80695;DHT22;70059;42.702;23.312;2024-01-06T14:03:13;20.50;30.70
80695;DHT22;70059;42.702;23.312;2024-01-06T14:05:39;20.10;31.80
80695;DHT22;70059;42.702;23.312;2024-01-06T14:08:06;19.30;33.30
80695;DHT22;70059;42.702;23.312;2024-01-06T14:10:31;18.50;35.50
80695;DHT22;70059;42.702;23.312;2024-01-06T14:12:57;18.00;37.00
80695;DHT22;70059;42.702;23.312;2024-01-06T14:15:23;17.60;37.90
80695;DHT22;70059;42.702;23.312;2024-01-06T14:17:49;17.40;39.10
80695;DHT22;70059;42.702;23.312;2024-01-06T14:20:16;16.80;39.80
80695;DHT22;70059;42.702;23.312;2024-01-06T14:22:47;16.40;41.20
80695;DHT22;70059;42.702;23.312;2024-01-06T14:25:15;16.20;41.70
80695;DHT22;70059;42.702;23.312;2024-01-06T14:27:48;16.10;42.60
80695;DHT22;70059;42.702;23.312;2024-01-06T14:30:19;16.00;42.80
80695;DHT22;70059;42.702;23.312;2024-01-06T14:32:45;15.90;43.30
80695;DHT22;70059;42.702;23.312;2024-01-06T14:35:11;15.90;43.00
80695;DHT22;70059;42.702;23.312;2024-01-06T14:37:38;15.70;43.60
80695;DHT22;70059;42.702;23.312;2024-01-06T14:40:06;15.60;44.20
80695;DHT22;70059;42.702;23.312;2024-01-06T14:42:32;15.30;45.10
80695;DHT22;70059;42.702;23.312;2024-01-06T14:45:01;15.10;45.80
80695;DHT22;70059;42.702;23.312;2024-01-06T14:47:27;14.80;46.40
80695;DHT22;70059;42.702;23.312;2024-01-06T14:49:52;14.50;47.10
80695;DHT22;70059;42.702;23.312;2024-01-06T14:52:18;14.30;48.20
80695;DHT22;70059;42.702;23.312;2024-01-06T14:54:44;14.10;48.40
80695;DHT22;70059;42.702;23.312;2024-01-06T14:57:10;14.20;48.80
80695;DHT22;70059;42.702;23.312;2024-01-06T14:59:35;13.90;49.30
80695;DHT22;70059;42.702;23.312;2024-01-06T15:02:02;13.90;50.20
80695;DHT22;70059;42.702;23.312;2024-01-06T15:04:28;13.60;50.40
80695;DHT22;70059;42.702;23.312;2024-01-06T15:06:54;13.40;51.60
80695;DHT22;70059;42.702;23.312;2024-01-06T15:09:20;13.00;51.90
80695;DHT22;70059;42.702;23.312;2024-01-06T15:11:46;12.90;52.60
80695;DHT22;70059;42.702;23.312;2024-01-06T15:14:12;12.80;53.50
80695;DHT22;70059;42.702;23.312;2024-01-06T15:16:45;12.70;53.60
80695;DHT22;70059;42.702;23.312;2024-01-06T15:19:11;12.60;54.20
80695;DHT22;70059;42.702;23.312;2024-01-06T15:21:37;12.60;54.80
80695;DHT22;70059;42.702;23.312;2024-01-06T15:24:03;12.40;54.70
80695;DHT22;70059;42.702;23.312;2024-01-06T15:26:29;12.20;55.50
80695;DHT22;70059;42.702;23.312;2024-01-06T15:28:56;12.10;56.10
80695;DHT22;70059;42.702;23.312;2024-01-06T15:31:30;11.90;56.30
80695;DHT22;70059;42.702;23.312;2024-01-06T15:33:56;12.00;56.90
80695;DHT22;70059;42.702;23.312;2024-01-06T15:36:24;11.80;56.80